createdAt,value
2019-03-06T00:01:00.845Z,74.27
2019-03-06T00:03:27.239Z,74.01
2019-03-06T00:05:53.885Z,74.49
2019-03-06T00:08:20.487Z,74.60
2019-03-06T00:10:47.064Z,74.26
2019-03-06T00:13:13.756Z,74.51
2019-03-06T00:15:40.280Z,74.50
2019-03-06T00:18:06.713Z,74.59
2019-03-06T00:20:33.095Z,74.51
2019-03-06T00:22:59.640Z,74.46
2019-03-06T00:25:26.310Z,74.45
2019-03-06T00:27:52.804Z,74.66
2019-03-06T00:30:19.695Z,74.59
2019-03-06T00:32:46.146Z,74.68
2019-03-06T00:35:24.357Z,74.73
2019-03-06T00:37:50.875Z,74.46
2019-03-06T00:40:36.343Z,74.45
2019-03-06T00:43:03.037Z,74.69
2019-03-06T00:45:29.533Z,74.46
2019-03-06T00:47:56.126Z,74.32
2019-03-06T00:50:22.683Z,74.08
2019-03-06T00:52:49.195Z,74.27
2019-03-06T00:55:16.038Z,74.64
2019-03-06T00:57:42.573Z,74.04
2019-03-06T01:00:26.056Z,74.20
2019-03-06T01:02:53.317Z,74.50
2019-03-06T01:05:20.308Z,74.13
2019-03-06T01:07:47.043Z,74.18
2019-03-06T01:10:14.860Z,73.86
2019-03-06T01:12:41.449Z,73.68
2019-03-06T01:15:10.439Z,73.82
2019-03-06T01:17:36.973Z,73.56
2019-03-06T01:20:07.292Z,73.28
2019-03-06T01:22:33.935Z,73.15
2019-03-06T01:25:00.494Z,72.68
2019-03-06T01:27:27.110Z,73.37
2019-03-06T01:29:53.746Z,72.64
2019-03-06T01:32:20.592Z,72.86
2019-03-06T01:34:54.659Z,72.38
2019-03-06T01:37:22.977Z,73.99
2019-03-06T01:39:57.196Z,73.71
2019-03-06T01:42:25.678Z,73.51
2019-03-06T01:44:52.517Z,73.26
2019-03-06T01:47:19.079Z,73.55
2019-03-06T01:49:45.792Z,74.43
2019-03-06T01:52:12.329Z,73.40
2019-03-06T01:54:38.702Z,73.16
2019-03-06T01:57:05.399Z,72.90
2019-03-06T01:59:32.118Z,72.73
2019-03-06T02:01:58.571Z,72.33
2019-03-06T02:04:25.085Z,72.63
2019-03-06T02:06:51.804Z,72.36
2019-03-06T02:09:19.717Z,72.50
2019-03-06T02:11:46.452Z,72.69
2019-03-06T02:14:12.886Z,72.92
2019-03-06T02:16:39.219Z,72.55
2019-03-06T02:19:06.365Z,72.75
2019-03-06T02:21:32.902Z,72.69
2019-03-06T02:23:59.334Z,72.21
2019-03-06T02:26:26.503Z,72.29
2019-03-06T02:28:52.814Z,72.43
2019-03-06T02:31:19.555Z,72.63
2019-03-06T02:33:46.091Z,72.26
2019-03-06T02:36:12.535Z,72.43
2019-03-06T02:38:39.060Z,71.99
2019-03-06T02:41:05.596Z,71.79
2019-03-06T02:43:32.540Z,71.68
2019-03-06T02:45:59.075Z,71.56
2019-03-06T02:48:25.711Z,71.50
2019-03-06T02:50:52.350Z,72.04
2019-03-06T02:53:18.987Z,71.77
2019-03-06T02:55:45.829Z,71.40
2019-03-06T02:58:23.016Z,71.29
2019-03-06T03:00:57.948Z,71.20
2019-03-06T03:03:26.439Z,71.12
2019-03-06T03:06:13.546Z,70.88
2019-03-06T03:08:39.986Z,71.04
2019-03-06T03:11:06.618Z,70.89
2019-03-06T03:13:33.253Z,71.24
2019-03-06T03:15:59.690Z,71.39
2019-03-06T03:18:26.530Z,71.04
2019-03-06T03:20:53.474Z,70.79
2019-03-06T03:23:20.110Z,70.73
2019-03-06T03:25:46.650Z,70.89
2019-03-06T03:28:13.166Z,70.83
2019-03-06T03:30:39.615Z,70.46
2019-03-06T03:33:06.463Z,70.36
2019-03-06T03:35:33.229Z,70.96
2019-03-06T03:37:59.958Z,70.84
2019-03-06T03:40:26.678Z,70.72
2019-03-06T03:42:53.931Z,70.11
2019-03-06T03:45:20.647Z,69.96
2019-03-06T03:47:47.217Z,69.91
2019-03-06T03:50:13.845Z,70.16
2019-03-06T03:52:40.792Z,70.36
2019-03-06T03:55:15.124Z,70.24
2019-03-06T03:57:42.053Z,70.09
2019-03-06T04:00:16.063Z,69.96
2019-03-06T04:02:42.621Z,70.43
2019-03-06T04:05:11.283Z,70.18
2019-03-06T04:07:37.923Z,70.57
2019-03-06T04:10:09.762Z,70.54
2019-03-06T04:12:36.725Z,70.51
2019-03-06T04:15:08.511Z,70.88
2019-03-06T04:17:35.726Z,70.00
2019-03-06T04:20:04.186Z,69.87
2019-03-06T04:22:30.952Z,69.49
2019-03-06T04:24:57.455Z,69.86
2019-03-06T04:27:24.285Z,70.07
2019-03-06T04:29:50.952Z,70.27
2019-03-06T04:32:17.943Z,69.82
2019-03-06T04:34:44.400Z,69.49
2019-03-06T04:37:10.792Z,69.45
2019-03-06T04:39:37.219Z,71.16
2019-03-06T04:42:03.831Z,70.09
2019-03-06T04:44:30.152Z,69.84
2019-03-06T04:46:56.579Z,70.11
2019-03-06T04:49:22.878Z,70.97
2019-03-06T04:51:49.369Z,71.20
2019-03-06T04:54:15.816Z,70.66
2019-03-06T04:56:42.287Z,71.65
2019-03-06T04:59:08.722Z,71.54
2019-03-06T05:01:35.031Z,70.88
2019-03-06T05:04:01.433Z,70.53
2019-03-06T05:06:27.831Z,70.29
2019-03-06T05:08:54.566Z,70.70
2019-03-06T05:11:20.967Z,70.99
2019-03-06T05:13:47.407Z,70.54
2019-03-06T05:16:13.743Z,71.21
2019-03-06T05:18:45.021Z,71.14
2019-03-06T05:21:11.353Z,71.10
2019-03-06T05:23:37.994Z,71.56
2019-03-06T05:26:04.505Z,71.96
2019-03-06T05:28:31.084Z,72.15
2019-03-06T05:30:57.675Z,72.15
2019-03-06T05:33:24.258Z,72.41
2019-03-06T05:36:27.126Z,72.41
2019-03-06T05:39:06.591Z,71.94
2019-03-06T05:41:32.999Z,72.21
2019-03-06T05:43:59.451Z,72.85
2019-03-06T05:46:25.787Z,72.68
2019-03-06T05:48:52.188Z,72.78
2019-03-06T05:51:18.619Z,72.71
2019-03-06T05:53:45.063Z,73.03
2019-03-06T05:56:11.483Z,72.80
2019-03-06T05:58:37.794Z,72.74
2019-03-06T06:01:04.479Z,72.97
2019-03-06T06:03:30.980Z,72.83
2019-03-06T06:05:57.509Z,72.93
2019-03-06T06:08:24.007Z,72.70
2019-03-06T06:10:50.549Z,72.92
2019-03-06T06:13:16.994Z,72.78
2019-03-06T06:15:43.375Z,72.75
2019-03-06T06:18:09.880Z,72.68
2019-03-06T06:20:36.268Z,72.69
2019-03-06T06:23:03.095Z,72.57
2019-03-06T06:25:31.536Z,72.61
2019-03-06T06:27:58.074Z,72.93
2019-03-06T06:30:25.155Z,73.02
2019-03-06T06:32:51.999Z,72.03
2019-03-06T06:35:18.432Z,72.48
2019-03-06T06:37:44.860Z,71.90
2019-03-06T06:40:14.559Z,71.35
2019-03-06T06:42:41.198Z,71.28
2019-03-06T06:45:14.226Z,71.16
2019-03-06T06:48:13.328Z,71.04
2019-03-06T06:51:01.743Z,70.90
2019-03-06T06:53:33.612Z,70.68
2019-03-06T06:56:50.308Z,71.08
2019-03-06T06:59:43.547Z,71.20
2019-03-06T07:02:58.559Z,70.27
2019-03-06T07:05:29.640Z,69.84
2019-03-06T07:08:00.786Z,69.96
2019-03-06T07:10:45.575Z,69.96
2019-03-06T07:13:12.348Z,70.75
2019-03-06T07:15:55.843Z,71.70
2019-03-06T07:18:26.880Z,70.00
2019-03-06T07:21:10.032Z,69.89
2019-03-06T07:23:56.545Z,70.21
2019-03-06T07:26:24.552Z,68.86
2019-03-06T07:28:51.055Z,66.57
2019-03-06T07:31:28.271Z,65.63
2019-03-06T07:33:56.474Z,64.90
2019-03-06T07:36:41.563Z,63.89
2019-03-06T07:39:10.063Z,62.98
2019-03-06T07:41:38.541Z,62.14
2019-03-06T07:44:07.130Z,61.59
2019-03-06T07:46:50.371Z,60.68
2019-03-06T07:49:21.631Z,59.08
2019-03-06T07:51:56.505Z,58.69
2019-03-06T07:54:24.719Z,58.72
2019-03-06T07:56:56.097Z,58.32
2019-03-06T07:59:22.584Z,58.12
2019-03-06T08:02:03.437Z,57.67
2019-03-06T08:04:30.100Z,56.43
2019-03-06T08:06:58.579Z,54.46
2019-03-06T08:09:25.026Z,54.68
2019-03-06T08:11:57.551Z,55.03
2019-03-06T08:14:38.050Z,53.67
2019-03-06T08:17:06.480Z,54.88
2019-03-06T08:19:51.247Z,52.26
2019-03-06T08:22:19.652Z,54.03
2019-03-06T08:24:47.863Z,51.47
2019-03-06T08:27:14.376Z,51.42
2019-03-06T08:29:41.143Z,51.71
2019-03-06T08:32:09.347Z,50.16
2019-03-06T08:34:36.099Z,50.93
2019-03-06T08:37:02.530Z,51.62
2019-03-06T08:39:29.026Z,51.71
2019-03-06T08:41:55.462Z,51.88
2019-03-06T08:44:21.795Z,51.34
2019-03-06T08:47:02.396Z,51.31
2019-03-06T08:49:38.006Z,50.64
2019-03-06T08:52:04.504Z,50.16
2019-03-06T08:54:44.816Z,51.42
2019-03-06T08:57:29.771Z,51.05
2019-03-06T08:59:58.185Z,51.15
2019-03-06T09:02:35.553Z,49.30
2019-03-06T09:05:22.680Z,49.00
2019-03-06T09:07:50.886Z,50.14
2019-03-06T09:10:23.986Z,50.52
2019-03-06T09:12:54.926Z,51.33
2019-03-06T09:15:32.308Z,51.57
2019-03-06T09:18:09.382Z,51.98
2019-03-06T09:20:46.892Z,51.38
2019-03-06T09:23:23.493Z,50.42
2019-03-06T09:25:51.215Z,50.46
2019-03-06T09:28:17.744Z,51.25
2019-03-06T09:30:48.642Z,50.65
2019-03-06T09:33:22.945Z,49.13
2019-03-06T09:35:51.248Z,49.74
2019-03-06T09:38:31.398Z,49.82
2019-03-06T09:41:00.103Z,49.92
2019-03-06T09:43:31.407Z,50.91
2019-03-06T09:46:03.212Z,51.01
2019-03-06T09:48:48.144Z,48.18
2019-03-06T09:51:28.470Z,46.86
2019-03-06T09:53:57.018Z,49.09
2019-03-06T09:56:25.302Z,49.55
2019-03-06T09:59:02.414Z,48.91
2019-03-06T10:01:31.091Z,47.13
2019-03-06T10:03:59.393Z,45.30
2019-03-06T10:06:27.716Z,47.30
2019-03-06T10:08:58.840Z,44.67
2019-03-06T10:11:39.827Z,45.63
2019-03-06T10:14:20.630Z,45.40
2019-03-06T10:16:49.215Z,46.84
2019-03-06T10:19:29.984Z,47.68
2019-03-06T10:21:59.188Z,45.56
2019-03-06T10:24:25.311Z,44.74
2019-03-06T10:26:51.778Z,43.78
2019-03-06T10:29:18.448Z,44.34
2019-03-06T10:31:44.858Z,44.05
2019-03-06T10:34:11.553Z,44.28
2019-03-06T10:36:38.161Z,45.49
2019-03-06T10:39:05.069Z,45.17
2019-03-06T10:41:31.878Z,44.63
2019-03-06T10:43:59.133Z,44.62
2019-03-06T10:46:25.843Z,44.59
2019-03-06T10:48:52.450Z,43.61
2019-03-06T10:51:19.188Z,45.37
2019-03-06T10:53:46.593Z,46.17
2019-03-06T10:56:13.527Z,44.19
2019-03-06T10:58:40.123Z,46.94
2019-03-06T11:01:07.742Z,47.51
2019-03-06T11:03:39.055Z,45.61
2019-03-06T11:06:06.058Z,44.46
2019-03-06T11:08:32.709Z,45.94
2019-03-06T11:10:59.383Z,44.54
2019-03-06T11:13:26.107Z,44.60
2019-03-06T11:15:55.665Z,45.59
2019-03-06T11:18:21.479Z,45.04
2019-03-06T11:20:48.002Z,44.25
2019-03-06T11:23:14.603Z,44.20
2019-03-06T11:25:41.469Z,43.72
2019-03-06T11:28:10.983Z,44.27
2019-03-06T11:30:57.997Z,43.51
2019-03-06T11:33:25.019Z,43.90
2019-03-06T11:35:58.043Z,45.35
2019-03-06T11:38:25.277Z,46.41
2019-03-06T11:40:51.706Z,45.83
2019-03-06T11:43:18.190Z,45.21
2019-03-06T11:45:45.098Z,46.69
2019-03-06T11:48:11.782Z,47.09
2019-03-06T11:50:41.136Z,44.88
2019-03-06T11:53:07.683Z,46.90
2019-03-06T11:55:34.526Z,46.29
2019-03-06T11:58:01.062Z,45.78
2019-03-06T12:00:30.773Z,45.01
2019-03-06T12:02:57.499Z,45.87
2019-03-06T12:05:24.300Z,46.97
2019-03-06T12:07:50.834Z,46.08
2019-03-06T12:10:18.141Z,45.77
2019-03-06T12:12:44.705Z,45.85
2019-03-06T12:15:12.580Z,46.37
2019-03-06T12:17:38.968Z,46.69
2019-03-06T12:20:08.594Z,45.70
2019-03-06T12:22:35.099Z,46.18
2019-03-06T12:25:01.860Z,45.87
2019-03-06T12:27:28.616Z,46.09
2019-03-06T12:29:55.274Z,46.42
2019-03-06T12:32:21.613Z,45.43
2019-03-06T12:34:48.371Z,47.07
2019-03-06T12:37:15.079Z,46.35
2019-03-06T12:39:42.220Z,45.76
2019-03-06T12:42:14.330Z,45.91
2019-03-06T12:44:37.011Z,45.88
2019-03-06T12:47:03.921Z,47.04
2019-03-06T12:49:32.491Z,47.26
2019-03-06T12:51:59.019Z,45.48
2019-03-06T12:54:25.505Z,45.84
2019-03-06T12:56:52.146Z,45.25
2019-03-06T12:59:18.709Z,45.67
2019-03-06T13:01:45.587Z,45.33
2019-03-06T13:04:12.388Z,43.71
2019-03-06T13:06:38.794Z,44.83
2019-03-06T13:09:11.156Z,44.86
2019-03-06T13:11:37.748Z,44.42
2019-03-06T13:14:04.657Z,44.59
2019-03-06T13:16:31.630Z,44.13
2019-03-06T13:18:58.679Z,44.23
2019-03-06T13:21:25.283Z,43.79
2019-03-06T13:23:51.696Z,43.79
2019-03-06T13:26:18.223Z,44.57
2019-03-06T13:28:44.536Z,44.57
2019-03-06T13:31:11.130Z,43.57
2019-03-06T13:33:42.058Z,43.82
2019-03-06T13:36:09.163Z,43.38
2019-03-06T13:38:35.500Z,44.56
2019-03-06T13:41:01.967Z,44.03
2019-03-06T13:43:28.497Z,44.63
2019-03-06T13:45:54.911Z,44.37
2019-03-06T13:48:21.309Z,46.22
2019-03-06T13:50:47.850Z,45.95
2019-03-06T13:53:20.217Z,44.56
2019-03-06T13:55:42.679Z,44.04
2019-03-06T13:58:09.287Z,44.22
2019-03-06T14:00:35.745Z,44.20
2019-03-06T14:03:02.608Z,44.47
2019-03-06T14:05:29.365Z,44.47
2019-03-06T14:07:56.933Z,44.77
2019-03-06T14:10:24.685Z,44.94
2019-03-06T14:12:51.463Z,44.59
2019-03-06T14:15:18.620Z,44.70
2019-03-06T14:17:45.372Z,45.24
2019-03-06T14:20:20.194Z,45.04
2019-03-06T14:22:46.916Z,44.00
2019-03-06T14:25:14.708Z,44.63
2019-03-06T14:27:42.005Z,43.79
2019-03-06T14:30:21.161Z,45.00
2019-03-06T14:32:48.527Z,44.53
2019-03-06T14:35:15.336Z,44.91
2019-03-06T14:37:42.238Z,45.93
2019-03-06T14:40:23.271Z,44.29
2019-03-06T14:42:50.376Z,44.58
2019-03-06T14:45:17.209Z,44.22
2019-03-06T14:47:43.699Z,44.08
2019-03-06T14:50:10.351Z,44.60
2019-03-06T14:52:36.957Z,43.79
2019-03-06T14:55:09.585Z,45.26
2019-03-06T14:57:36.173Z,43.43
2019-03-06T15:00:06.771Z,43.06
2019-03-06T15:02:34.716Z,42.38
2019-03-06T15:05:01.557Z,42.76
2019-03-06T15:07:28.217Z,43.49
2019-03-06T15:09:54.605Z,43.21
2019-03-06T15:12:21.242Z,43.34
2019-03-06T15:14:47.833Z,43.36
2019-03-06T15:17:14.491Z,42.97
2019-03-06T15:19:40.914Z,43.08
2019-03-06T15:22:07.538Z,43.18
2019-03-06T15:24:40.935Z,43.43
2019-03-06T15:27:02.360Z,43.21
2019-03-06T15:29:28.807Z,43.92
2019-03-06T15:31:55.545Z,43.44
2019-03-06T15:34:23.007Z,44.12
2019-03-06T15:36:49.722Z,44.46
2019-03-06T15:39:26.213Z,43.06
2019-03-06T15:42:00.071Z,43.52
2019-03-06T15:44:21.348Z,43.61
2019-03-06T15:46:48.173Z,44.29
2019-03-06T15:49:14.568Z,43.90
2019-03-06T15:51:41.207Z,44.33
2019-03-06T15:54:08.040Z,44.18
2019-03-06T15:56:34.780Z,43.75
2019-03-06T15:59:01.492Z,43.73
2019-03-06T16:01:28.723Z,43.51
2019-03-06T16:03:55.446Z,43.98
2019-03-06T16:06:22.072Z,43.99
2019-03-06T16:08:48.670Z,44.18
2019-03-06T16:11:15.202Z,44.51
2019-03-06T16:13:41.761Z,44.76
2019-03-06T16:16:08.283Z,44.37
2019-03-06T16:18:34.722Z,44.55
2019-03-06T16:21:01.624Z,44.34
2019-03-06T16:23:28.271Z,44.44
2019-03-06T16:25:54.741Z,44.58
2019-03-06T16:28:21.214Z,44.96
2019-03-06T16:30:47.607Z,44.96
2019-03-06T16:33:14.115Z,45.39
2019-03-06T16:35:40.805Z,45.84
2019-03-06T16:38:07.233Z,46.02
2019-03-06T16:40:33.898Z,45.73
2019-03-06T16:43:00.317Z,46.00
2019-03-06T16:45:28.843Z,45.80
2019-03-06T16:47:55.452Z,45.78
2019-03-06T16:50:22.559Z,45.86
2019-03-06T16:52:49.225Z,46.07
2019-03-06T16:55:17.500Z,45.76
2019-03-06T16:57:44.587Z,45.99
2019-03-06T17:00:32.011Z,45.79
2019-03-06T17:03:09.195Z,45.58
2019-03-06T17:05:35.987Z,45.59
2019-03-06T17:08:03.574Z,46.28
2019-03-06T17:10:31.975Z,45.91
2019-03-06T17:12:58.652Z,46.03
2019-03-06T17:15:27.779Z,46.16
2019-03-06T17:17:54.771Z,45.99
2019-03-06T17:20:29.461Z,46.22
2019-03-06T17:22:56.934Z,46.15
2019-03-06T17:25:25.946Z,46.14
2019-03-06T17:27:52.172Z,46.27
2019-03-06T17:30:26.505Z,46.38
2019-03-06T17:32:58.519Z,46.59
2019-03-06T17:35:26.256Z,46.45
2019-03-06T17:37:52.882Z,46.54
2019-03-06T17:40:19.688Z,46.59
2019-03-06T17:42:46.293Z,46.86
2019-03-06T17:45:15.133Z,46.97
2019-03-06T17:47:41.927Z,47.22
2019-03-06T17:50:11.907Z,47.61
2019-03-06T17:52:38.622Z,47.75
2019-03-06T17:55:07.184Z,48.34
2019-03-06T17:57:33.576Z,48.41
2019-03-06T17:59:59.917Z,48.48
2019-03-06T18:02:26.679Z,48.25
2019-03-06T18:04:53.167Z,48.57
2019-03-06T18:07:19.455Z,48.60
2019-03-06T18:09:46.111Z,48.98
2019-03-06T18:12:12.508Z,49.19
2019-03-06T18:14:39.127Z,49.53
2019-03-06T18:17:05.616Z,50.12
2019-03-06T18:19:32.044Z,50.44
2019-03-06T18:21:58.447Z,50.09
2019-03-06T18:24:25.183Z,49.57
2019-03-06T18:26:51.639Z,49.73
2019-03-06T18:29:18.148Z,49.81
2019-03-06T18:31:44.686Z,49.65
2019-03-06T18:34:11.193Z,49.49
2019-03-06T18:36:38.731Z,49.28
2019-03-06T18:39:07.366Z,49.49
2019-03-06T18:41:33.653Z,49.81
2019-03-06T18:44:00.232Z,49.91
2019-03-06T18:46:26.852Z,49.81
2019-03-06T18:48:53.189Z,50.34
2019-03-06T18:51:19.499Z,49.30
2019-03-06T18:53:45.918Z,49.44
2019-03-06T18:56:12.440Z,49.21
2019-03-06T18:58:38.788Z,49.04
2019-03-06T19:01:05.597Z,49.18
2019-03-06T19:03:32.303Z,49.23
2019-03-06T19:05:58.945Z,48.83
2019-03-06T19:08:31.257Z,49.15
2019-03-06T19:10:54.025Z,48.68
2019-03-06T19:13:20.838Z,48.97
2019-03-06T19:15:47.267Z,48.77
2019-03-06T19:18:13.601Z,48.68
2019-03-06T19:20:40.308Z,48.57
2019-03-06T19:23:07.036Z,48.49
2019-03-06T19:25:33.635Z,48.28
2019-03-06T19:28:00.090Z,48.07
2019-03-06T19:30:26.791Z,48.18
2019-03-06T19:32:53.613Z,48.26
2019-03-06T19:35:22.419Z,48.22
2019-03-06T19:37:49.123Z,48.40
2019-03-06T19:40:17.609Z,48.27
2019-03-06T19:42:44.548Z,48.25
2019-03-06T19:45:20.165Z,48.48
2019-03-06T19:47:47.028Z,48.32
2019-03-06T19:50:21.910Z,48.34
2019-03-06T19:52:48.693Z,48.08
2019-03-06T19:55:17.150Z,48.28
2019-03-06T19:58:00.002Z,48.23
2019-03-06T20:00:29.557Z,48.31
2019-03-06T20:05:28.193Z,48.32
2019-03-06T20:07:54.590Z,48.52
2019-03-06T20:10:21.805Z,48.33
2019-03-06T20:12:48.508Z,48.39
2019-03-06T20:15:17.461Z,48.13
2019-03-06T20:17:44.170Z,48.44
2019-03-06T20:20:15.660Z,48.14
2019-03-06T20:22:42.012Z,48.21
2019-03-06T20:25:10.128Z,48.34
2019-03-06T20:27:36.951Z,48.32
2019-03-06T20:30:14.964Z,48.01
2019-03-06T20:32:41.779Z,48.15
2019-03-06T20:35:08.582Z,47.48
2019-03-06T20:37:35.141Z,47.05
2019-03-06T20:40:02.280Z,47.79
2019-03-06T20:42:29.085Z,47.34
2019-03-06T20:44:55.708Z,46.89
2019-03-06T20:47:22.015Z,46.97
2019-03-06T20:49:48.797Z,46.70
2019-03-06T20:52:15.206Z,47.02
2019-03-06T20:54:41.625Z,46.96
2019-03-06T20:57:08.127Z,46.65
2019-03-06T20:59:36.380Z,46.78
2019-03-06T21:02:02.888Z,46.65
2019-03-06T21:04:29.365Z,46.95
2019-03-06T21:06:55.947Z,46.95
2019-03-06T21:09:22.648Z,46.81
2019-03-06T21:11:49.250Z,47.03
2019-03-06T21:14:15.656Z,46.74
2019-03-06T21:16:42.101Z,46.80
2019-03-06T21:19:08.753Z,46.94
2019-03-06T21:21:35.292Z,46.91
2019-03-06T21:24:01.801Z,47.04
2019-03-06T21:26:28.229Z,47.16
2019-03-06T21:28:54.524Z,47.45
2019-03-06T21:31:20.887Z,47.76
2019-03-06T21:33:47.179Z,47.88
2019-03-06T21:36:13.507Z,47.95
2019-03-06T21:38:39.801Z,48.15
2019-03-06T21:41:06.217Z,48.26
2019-03-06T21:43:32.547Z,48.45
2019-03-06T21:45:58.983Z,48.57
2019-03-06T21:48:25.639Z,48.73
2019-03-06T21:50:52.223Z,48.72
2019-03-06T21:53:18.542Z,49.12
2019-03-06T21:55:44.924Z,48.87
2019-03-06T21:58:11.377Z,48.87
2019-03-06T22:00:37.869Z,48.84
2019-03-06T22:03:04.684Z,48.91
2019-03-06T22:05:31.183Z,49.00
2019-03-06T22:07:57.681Z,49.07
2019-03-06T22:10:24.452Z,48.92
2019-03-06T22:12:50.941Z,49.15
2019-03-06T22:15:22.105Z,49.34
2019-03-06T22:17:48.636Z,49.04
2019-03-06T22:20:15.477Z,48.94
2019-03-06T22:22:42.333Z,48.99
2019-03-06T22:25:14.532Z,49.93
2019-03-06T22:27:41.051Z,49.65
2019-03-06T22:30:17.015Z,49.30
2019-03-06T22:32:43.555Z,49.36
2019-03-06T22:35:10.344Z,49.30
2019-03-06T22:37:36.975Z,49.56
2019-03-06T22:40:08.828Z,49.79
2019-03-06T22:42:35.425Z,49.42
2019-03-06T22:45:02.204Z,49.77
2019-03-06T22:47:28.499Z,50.33
2019-03-06T22:49:56.304Z,50.07
2019-03-06T22:52:22.654Z,50.45
2019-03-06T22:54:49.176Z,50.68
2019-03-06T22:57:15.563Z,50.33
2019-03-06T22:59:42.167Z,50.31
2019-03-06T23:02:09.346Z,50.85
2019-03-06T23:04:35.920Z,50.91
2019-03-06T23:07:02.455Z,50.85
2019-03-06T23:09:28.955Z,50.99
2019-03-06T23:11:55.415Z,51.26
2019-03-06T23:14:21.963Z,50.83
2019-03-06T23:16:49.280Z,50.91
2019-03-06T23:19:15.615Z,51.29
2019-03-06T23:21:42.637Z,51.11
2019-03-06T23:24:08.956Z,51.30
2019-03-06T23:26:42.527Z,51.19
2019-03-06T23:29:03.807Z,51.16
2019-03-06T23:31:30.135Z,50.94
2019-03-06T23:33:56.792Z,51.03
2019-03-06T23:36:23.115Z,51.16
2019-03-06T23:38:49.611Z,51.38
2019-03-06T23:41:16.041Z,51.23
2019-03-06T23:43:42.768Z,51.53
2019-03-06T23:46:09.207Z,51.34
2019-03-06T23:48:35.710Z,51.60
2019-03-06T23:51:04.115Z,51.39
2019-03-06T23:53:32.343Z,51.34
2019-03-06T23:55:58.764Z,51.18
2019-03-06T23:58:25.500Z,51.27
